Terminal Aerodrome Forecast
Issued by NWS

Home | Current Version | Previous Version | Graphics & Text | Print | Product List | Glossary On
Versions: 1 2 3 4 5 6 7 8 9 10 11 12 13 14
000
FTUS43 KFGF 061700
TAFBJI
TAF
KBJI 061732Z 0618/0718 29014KT P6SM SCT250
     FM070000 21008KT P6SM BKN120
     FM070300 20008KT 5SM -SN OVC040
     FM070900 29012G20KT P6SM SCT040=

USA.gov is the U.S. government's official web portal to all federal, state and local government web resources and services.